Altamahaw, North Carolina
Current Conditions -  °F | °C
As of 8:54 PM on Tuesday 21 Oct 2014 (Local Time) from KBUY Reporting Station
Overcast Overcast  
Wind Chill: 61°   Ceiling: 9000
Heat Index: 61°   Visibility: 10mi
Dew Point: 39°   Wind: 16mph
Humidity: 44%   Direction: 330°NNW
Pressure: 29.94"   Gusts: 23mph
Location:  36.18°N, 79.51°W
Report Text: KBUY 220054Z AUTO 33014G20KT 10SM SCT075 OVC090 16/04 A2994 RMK AO2 SLP135 T01610039
Loading
Personal Weather Stations






























Interactive Weather Map
Tropical Storm Tracking
New forecast layout! Learn more

10-Day Weather Forecast

Advertisements
Track Severe Weather on mobile